createdAt,value
2022-11-15T00:03:24.730Z,65.05
2022-11-15T00:06:12.578Z,68.20
2022-11-15T00:09:01.226Z,72.28
2022-11-15T00:11:49.720Z,71.10
2022-11-15T00:14:39.349Z,59.88
2022-11-15T00:17:27.440Z,70.28
2022-11-15T00:20:15.728Z,71.72
2022-11-15T00:23:05.522Z,72.28
2022-11-15T00:25:59.397Z,71.03
2022-11-15T00:28:47.750Z,63.75
2022-11-15T00:31:36.769Z,68.32
2022-11-15T00:37:12.169Z,68.72
2022-11-15T00:39:59.946Z,70.75
2022-11-15T00:42:47.860Z,60.10
2022-11-15T00:45:36.089Z,66.63
2022-11-15T00:48:25.429Z,62.92
2022-11-15T00:51:13.647Z,61.53
2022-11-15T00:54:01.700Z,67.85
2022-11-15T00:56:49.368Z,64.70
2022-11-15T00:59:37.180Z,60.63
2022-11-15T01:02:25.295Z,72.97
2022-11-15T01:05:14.569Z,69.07
2022-11-15T01:10:49.986Z,68.38
2022-11-15T01:13:38.995Z,85.25
2022-11-15T01:16:26.348Z,71.95
2022-11-15T01:19:14.023Z,78.18
2022-11-15T01:22:03.339Z,73.38
2022-11-15T01:24:52.328Z,71.10
2022-11-15T01:27:39.805Z,77.57
2022-11-15T01:30:27.774Z,83.07
2022-11-15T01:33:15.351Z,85.55
2022-11-15T01:36:08.031Z,74.57
2022-11-15T01:38:58.872Z,78.25
2022-11-15T01:41:46.803Z,86.10
2022-11-15T01:44:44.213Z,75.78
2022-11-15T01:47:35.590Z,76.28
2022-11-15T01:50:26.874Z,82.82
2022-11-15T01:53:15.595Z,93.38
2022-11-15T01:56:07.716Z,93.57
2022-11-15T01:58:58.317Z,97.70
2022-11-15T02:01:46.332Z,85.40
2022-11-15T02:04:37.326Z,82.93
2022-11-15T02:07:25.187Z,77.82
2022-11-15T02:10:15.668Z,76.38
2022-11-15T02:13:05.336Z,84.22
2022-11-15T02:18:56.231Z,80.72
2022-11-15T02:21:52.343Z,77.03
2022-11-15T02:25:07.137Z,70.55
2022-11-15T02:28:27.521Z,74.20
2022-11-15T02:31:27.555Z,72.15
2022-11-15T02:34:26.902Z,82.32
2022-11-15T02:37:18.984Z,66.90
2022-11-15T02:40:13.483Z,75.40
2022-11-15T02:43:26.770Z,75.15
2022-11-15T02:46:22.160Z,72.70
2022-11-15T02:49:09.769Z,80.57
2022-11-15T02:51:58.144Z,84.03
2022-11-15T02:54:55.072Z,80.40
2022-11-15T02:57:56.637Z,78.63
2022-11-15T03:00:52.395Z,69.05
2022-11-15T03:03:56.467Z,86.47
2022-11-15T03:06:51.712Z,87.43
2022-11-15T03:09:46.767Z,88.35
2022-11-15T03:12:44.391Z,79.88
2022-11-15T03:15:39.184Z,86.47
2022-11-15T03:18:34.164Z,89.20
2022-11-15T03:21:25.323Z,87.50
2022-11-15T03:24:14.976Z,83.82
2022-11-15T03:27:05.208Z,88.15
2022-11-15T03:33:04.769Z,86.55
2022-11-15T03:35:54.143Z,84.53
2022-11-15T03:38:44.253Z,91.80
2022-11-15T03:41:40.084Z,75.25
2022-11-15T03:44:46.209Z,80.80
2022-11-15T03:47:37.970Z,77.82
2022-11-15T03:50:27.214Z,91.18
2022-11-15T03:56:04.056Z,78.03
2022-11-15T03:58:52.607Z,72.68
2022-11-15T04:01:40.535Z,83.45
2022-11-15T04:04:28.480Z,81.47
2022-11-15T04:07:16.066Z,79.88
2022-11-15T04:10:04.460Z,73.95
2022-11-15T04:12:53.922Z,68.00
2022-11-15T04:15:41.429Z,79.88
2022-11-15T04:18:29.000Z,79.00
2022-11-15T04:21:34.197Z,80.47
2022-11-15T04:24:21.591Z,73.60
2022-11-15T04:27:09.600Z,95.55
2022-11-15T04:30:00.026Z,79.22
2022-11-15T04:32:48.285Z,86.00
2022-11-15T04:35:36.614Z,102.18
2022-11-15T04:38:24.847Z,87.07
2022-11-15T04:41:12.598Z,95.70
2022-11-15T04:44:00.633Z,90.30
2022-11-15T04:46:49.766Z,88.95
2022-11-15T04:49:37.854Z,82.72
2022-11-15T04:52:25.631Z,84.90
2022-11-15T04:55:13.924Z,96.50
2022-11-15T04:58:02.267Z,96.68
2022-11-15T05:00:50.493Z,84.93
2022-11-15T05:03:56.477Z,72.70
2022-11-15T05:06:44.187Z,91.93
2022-11-15T05:09:31.897Z,83.85
2022-11-15T05:12:19.766Z,76.35
2022-11-15T05:15:08.487Z,69.38
2022-11-15T05:18:01.423Z,59.30
2022-11-15T05:20:50.185Z,63.42
2022-11-15T05:23:38.556Z,67.15
2022-11-15T05:26:26.836Z,71.35
2022-11-15T05:29:14.898Z,70.68
2022-11-15T05:32:02.770Z,60.08
2022-11-15T05:34:50.925Z,70.82
2022-11-15T05:37:40.044Z,65.05
2022-11-15T05:40:28.852Z,70.25
2022-11-15T05:43:16.383Z,64.07
2022-11-15T05:46:06.577Z,56.17
2022-11-15T05:51:46.408Z,37.70
2022-11-15T05:54:37.195Z,51.45
2022-11-15T05:57:25.964Z,52.53
2022-11-15T06:00:15.002Z,47.23
2022-11-15T06:03:03.017Z,52.97
2022-11-15T06:05:50.958Z,53.85
2022-11-15T06:08:38.863Z,54.55
2022-11-15T06:11:27.965Z,47.78
2022-11-15T06:14:16.040Z,58.88
2022-11-15T06:17:10.078Z,55.05
2022-11-15T06:19:59.372Z,51.13
2022-11-15T06:22:46.968Z,49.88
2022-11-15T06:25:35.109Z,54.92
2022-11-15T06:28:23.963Z,46.58
2022-11-15T06:31:13.468Z,49.80
2022-11-15T06:34:01.371Z,38.55
2022-11-15T06:36:49.372Z,39.45
2022-11-15T06:39:37.352Z,41.97
2022-11-15T06:42:25.263Z,42.63
2022-11-15T06:45:14.984Z,55.95
2022-11-15T06:48:03.256Z,54.58
2022-11-15T06:50:53.988Z,50.40
2022-11-15T06:53:41.956Z,41.30
2022-11-15T06:56:29.687Z,44.97
2022-11-15T06:59:17.743Z,46.58
2022-11-15T07:02:06.966Z,41.83
2022-11-15T07:04:54.830Z,44.75
2022-11-15T07:07:43.113Z,49.83
2022-11-15T07:10:31.639Z,49.00
2022-11-15T07:13:19.619Z,48.72
2022-11-15T07:16:09.854Z,50.38
2022-11-15T07:18:59.458Z,44.28
2022-11-15T07:21:47.704Z,43.83
2022-11-15T07:24:35.743Z,47.92
2022-11-15T07:27:23.618Z,45.30
2022-11-15T07:30:15.419Z,50.85
2022-11-15T07:33:03.686Z,44.72
2022-11-15T07:35:52.769Z,51.65
2022-11-15T07:44:19.154Z,40.13
2022-11-15T07:47:06.704Z,47.78
2022-11-15T07:49:55.644Z,50.65
2022-11-15T07:52:45.114Z,45.47
2022-11-15T07:55:32.972Z,43.75
2022-11-15T07:58:21.152Z,50.28
2022-11-15T08:01:11.545Z,57.63
2022-11-15T08:03:59.528Z,47.17
2022-11-15T08:06:47.413Z,49.70
2022-11-15T08:09:36.587Z,52.38
2022-11-15T08:12:24.687Z,41.28
2022-11-15T08:15:14.295Z,53.10
2022-11-15T08:18:06.599Z,44.60
2022-11-15T08:20:54.050Z,48.47
2022-11-15T08:23:42.149Z,46.10
2022-11-15T08:26:31.355Z,45.78
2022-11-15T08:29:19.714Z,46.15
2022-11-15T08:32:08.457Z,54.10
2022-11-15T08:34:56.319Z,42.15
2022-11-15T08:37:44.073Z,52.03
2022-11-15T08:40:31.941Z,57.88
2022-11-15T08:43:21.263Z,49.67
2022-11-15T08:46:11.831Z,43.05
2022-11-15T08:48:59.352Z,37.30
2022-11-15T08:51:47.259Z,45.80
2022-11-15T08:54:34.825Z,47.85
2022-11-15T08:57:22.745Z,47.33
2022-11-15T09:00:13.790Z,41.65
2022-11-15T09:03:02.033Z,39.72
2022-11-15T09:05:49.856Z,40.85
2022-11-15T09:08:47.444Z,39.67
2022-11-15T09:11:36.756Z,44.95
2022-11-15T09:14:24.944Z,43.40
2022-11-15T09:17:14.512Z,41.60
2022-11-15T09:20:02.388Z,46.95
2022-11-15T09:22:51.358Z,39.35
2022-11-15T09:25:39.244Z,39.63
2022-11-15T09:28:27.501Z,42.08
2022-11-15T09:31:19.470Z,44.30
2022-11-15T09:34:11.059Z,41.28
2022-11-15T09:36:59.101Z,45.58
2022-11-15T09:39:46.844Z,39.95
2022-11-15T09:42:58.303Z,38.85
2022-11-15T09:46:00.064Z,42.78
2022-11-15T09:48:55.381Z,34.25
2022-11-15T09:51:30.924Z,39.35
2022-11-15T09:54:46.092Z,36.53
2022-11-15T09:57:16.321Z,40.95
2022-11-15T10:00:01.363Z,42.38
2022-11-15T10:02:55.258Z,36.85
2022-11-15T10:05:27.202Z,41.67
2022-11-15T10:08:03.775Z,44.25
2022-11-15T10:10:40.069Z,37.15
2022-11-15T10:13:15.264Z,41.10
2022-11-15T10:15:48.761Z,39.35
2022-11-15T10:18:20.980Z,43.42
2022-11-15T10:20:52.947Z,42.28
2022-11-15T10:23:25.422Z,37.03
2022-11-15T10:25:58.406Z,44.55
2022-11-15T10:28:32.234Z,45.30
2022-11-15T10:31:03.340Z,39.13
2022-11-15T10:33:36.862Z,41.85
2022-11-15T10:36:23.191Z,37.17
2022-11-15T10:39:13.501Z,41.90
2022-11-15T10:41:44.679Z,53.55
2022-11-15T10:44:26.469Z,42.50
2022-11-15T10:47:24.534Z,46.53
2022-11-15T10:49:59.836Z,44.88
2022-11-15T10:52:30.859Z,38.72
2022-11-15T10:55:07.588Z,43.58
2022-11-15T10:57:41.468Z,45.15
2022-11-15T11:00:31.396Z,44.05
2022-11-15T11:03:02.535Z,39.67
2022-11-15T11:05:41.009Z,48.47
2022-11-15T11:08:24.984Z,42.33
2022-11-15T11:11:03.147Z,44.65
2022-11-15T11:13:35.368Z,44.08
2022-11-15T11:16:44.331Z,49.65
2022-11-15T11:19:32.735Z,42.63
2022-11-15T11:22:08.014Z,49.60
2022-11-15T11:24:43.256Z,43.15
2022-11-15T11:27:28.967Z,41.20
2022-11-15T11:30:08.124Z,38.40
2022-11-15T11:33:01.813Z,48.00
2022-11-15T11:35:36.403Z,55.33
2022-11-15T11:38:21.678Z,49.70
2022-11-15T11:41:03.259Z,51.60
2022-11-15T11:43:58.497Z,38.88
2022-11-15T11:46:48.558Z,45.60
2022-11-15T11:49:24.029Z,54.67
2022-11-15T11:51:58.702Z,45.50
2022-11-15T11:54:37.049Z,45.72
2022-11-15T11:57:14.831Z,51.25
2022-11-15T11:59:51.292Z,54.00
2022-11-15T12:02:30.108Z,52.72
2022-11-15T12:05:10.006Z,49.53
2022-11-15T12:07:42.128Z,50.53
2022-11-15T12:10:21.171Z,44.08
2022-11-15T12:12:57.764Z,47.72
2022-11-15T12:15:33.545Z,44.28
2022-11-15T12:18:03.645Z,58.70
2022-11-15T12:20:37.656Z,49.95
2022-11-15T12:23:13.793Z,48.30
2022-11-15T12:25:48.954Z,56.55
2022-11-15T12:28:25.929Z,53.15
2022-11-15T12:31:01.883Z,74.65
2022-11-15T12:33:40.472Z,59.75
2022-11-15T12:36:14.566Z,71.25
2022-11-15T12:38:56.580Z,61.03
2022-11-15T12:41:27.521Z,59.63
2022-11-15T12:43:57.741Z,50.72
2022-11-15T12:47:02.930Z,60.28
2022-11-15T12:49:49.232Z,57.97
2022-11-15T12:52:18.735Z,63.40
2022-11-15T12:55:25.274Z,47.10
2022-11-15T12:57:55.220Z,54.83
2022-11-15T13:00:46.135Z,48.20
2022-11-15T13:03:28.298Z,53.00
2022-11-15T13:06:21.199Z,49.30
2022-11-15T13:08:52.443Z,51.45
2022-11-15T13:11:44.729Z,60.53
2022-11-15T13:14:43.226Z,61.38
2022-11-15T13:17:34.901Z,79.32
2022-11-15T13:20:23.400Z,72.10
2022-11-15T13:23:03.447Z,71.63
2022-11-15T13:26:04.097Z,75.05
2022-11-15T13:28:38.063Z,56.92
2022-11-15T13:31:28.153Z,61.35
2022-11-15T13:34:01.700Z,65.20
2022-11-15T13:36:35.447Z,61.40
2022-11-15T13:39:08.526Z,63.53
2022-11-15T13:41:46.980Z,50.45
2022-11-15T13:44:23.693Z,57.37
2022-11-15T13:47:05.009Z,56.97
2022-11-15T13:49:35.772Z,55.90
2022-11-15T13:52:10.013Z,55.03
2022-11-15T13:54:45.398Z,59.08
2022-11-15T13:57:18.161Z,59.72
2022-11-15T13:59:50.667Z,51.40
2022-11-15T14:02:22.315Z,51.60
2022-11-15T14:04:55.212Z,52.38
2022-11-15T14:07:28.995Z,49.80
2022-11-15T14:09:58.490Z,44.38
2022-11-15T14:12:34.381Z,54.55
2022-11-15T14:15:20.680Z,53.83
2022-11-15T14:17:50.414Z,42.92
2022-11-15T14:20:31.721Z,39.63
2022-11-15T14:23:04.179Z,51.58
2022-11-15T14:25:34.792Z,46.72
2022-11-15T14:28:30.724Z,53.80
2022-11-15T14:31:02.408Z,47.15
2022-11-15T14:33:34.258Z,43.13
2022-11-15T14:36:07.691Z,43.67
2022-11-15T14:38:38.181Z,46.72
2022-11-15T14:41:07.896Z,45.63
2022-11-15T14:43:36.852Z,47.90
2022-11-15T14:46:06.460Z,42.10
2022-11-15T14:48:35.769Z,54.47
2022-11-15T14:51:05.217Z,48.65
2022-11-15T14:53:34.347Z,45.13
2022-11-15T14:56:05.628Z,46.15
2022-11-15T14:58:35.081Z,47.72
2022-11-15T15:03:33.751Z,40.67
2022-11-15T15:06:02.963Z,50.15
2022-11-15T15:08:32.257Z,51.70
2022-11-15T15:11:01.841Z,43.60
2022-11-15T15:13:32.848Z,44.78
2022-11-15T15:16:02.223Z,42.15
2022-11-15T15:18:31.469Z,40.15
2022-11-15T15:23:37.007Z,44.95
2022-11-15T15:26:06.481Z,39.55
2022-11-15T15:28:38.192Z,48.60
2022-11-15T15:31:08.102Z,45.95
2022-11-15T15:33:37.032Z,48.05
2022-11-15T15:36:06.949Z,41.45
2022-11-15T15:38:36.124Z,44.50
2022-11-15T15:41:05.589Z,40.85
2022-11-15T15:43:35.896Z,39.75
2022-11-15T15:46:05.317Z,38.67
2022-11-15T15:48:38.142Z,45.50
2022-11-15T15:51:15.327Z,52.30
2022-11-15T15:53:48.241Z,44.13
2022-11-15T15:56:17.583Z,48.92
2022-11-15T15:58:47.898Z,46.28
2022-11-15T16:01:17.447Z,49.92
2022-11-15T16:03:46.562Z,44.40
2022-11-15T16:06:40.209Z,47.00
2022-11-15T16:09:16.017Z,43.65
2022-11-15T16:11:48.214Z,42.83
2022-11-15T16:14:18.759Z,45.40
2022-11-15T16:16:48.156Z,44.97
2022-11-15T16:19:17.413Z,42.45
2022-11-15T16:21:46.786Z,49.70
2022-11-15T16:24:16.001Z,38.38
2022-11-15T16:26:45.253Z,39.13
2022-11-15T16:29:14.337Z,39.60
2022-11-15T16:31:44.958Z,49.35
2022-11-15T16:34:13.987Z,52.78
2022-11-15T16:36:43.236Z,56.58
2022-11-15T16:39:16.131Z,56.65
2022-11-15T16:41:47.779Z,53.03
2022-11-15T16:44:17.097Z,60.10
2022-11-15T16:49:23.694Z,46.53
2022-11-15T16:51:53.183Z,51.78
2022-11-15T16:54:22.104Z,55.80
2022-11-15T16:56:51.511Z,54.53
2022-11-15T16:59:20.987Z,53.08
2022-11-15T17:01:54.313Z,57.35
2022-11-15T17:04:23.711Z,55.45
2022-11-15T17:06:53.198Z,47.38
2022-11-15T17:09:24.928Z,57.67
2022-11-15T17:11:54.611Z,52.08
2022-11-15T17:14:23.668Z,47.13
2022-11-15T17:16:56.899Z,49.05
2022-11-15T17:19:26.501Z,48.00
2022-11-15T17:21:56.192Z,46.17
2022-11-15T17:24:25.329Z,49.08
2022-11-15T17:26:54.577Z,60.58
2022-11-15T17:29:23.777Z,56.22
2022-11-15T17:31:54.365Z,59.92
2022-11-15T17:34:23.392Z,54.28
2022-11-15T17:36:52.647Z,58.38
2022-11-15T17:39:23.988Z,59.58
2022-11-15T17:41:53.418Z,55.45
2022-11-15T17:44:22.353Z,61.40
2022-11-15T17:46:53.163Z,58.50
2022-11-15T17:49:22.238Z,51.80
2022-11-15T17:51:51.637Z,58.88
2022-11-15T17:54:22.179Z,65.35
2022-11-15T17:56:52.026Z,62.17
2022-11-15T17:59:21.870Z,57.63
2022-11-15T18:01:54.361Z,53.20
2022-11-15T18:04:28.475Z,56.60
2022-11-15T18:07:00.672Z,60.65
2022-11-15T18:09:30.086Z,65.18
2022-11-15T18:11:59.596Z,60.47
2022-11-15T18:14:28.728Z,59.92
2022-11-15T18:16:59.334Z,54.92
2022-11-15T18:19:28.367Z,54.45
2022-11-15T18:21:58.969Z,53.80
2022-11-15T18:24:29.715Z,65.43
2022-11-15T18:27:01.297Z,61.90
2022-11-15T18:29:30.627Z,63.33
2022-11-15T18:34:34.553Z,57.78
2022-11-15T18:37:04.036Z,53.72
2022-11-15T18:39:35.410Z,49.70
2022-11-15T18:42:05.223Z,50.08
2022-11-15T18:44:34.526Z,59.33
2022-11-15T18:47:05.155Z,50.60
2022-11-15T18:49:34.222Z,53.85
2022-11-15T18:52:03.490Z,51.85
2022-11-15T18:54:33.143Z,52.15
2022-11-15T18:57:02.813Z,54.47
2022-11-15T18:59:31.768Z,58.15
2022-11-15T19:02:01.019Z,63.83
2022-11-15T19:04:31.521Z,57.15
2022-11-15T19:07:01.114Z,52.47
2022-11-15T19:09:32.802Z,52.80
2022-11-15T19:12:02.421Z,50.20
2022-11-15T19:14:31.463Z,60.35
2022-11-15T19:17:01.439Z,61.97
2022-11-15T19:19:32.959Z,58.15
2022-11-15T19:22:03.202Z,62.45
2022-11-15T19:24:32.483Z,60.88
2022-11-15T19:27:02.128Z,61.00
2022-11-15T19:29:31.240Z,56.50
2022-11-15T19:32:00.645Z,65.63
2022-11-15T19:34:32.483Z,57.60
2022-11-15T19:37:03.290Z,56.15
2022-11-15T19:39:39.807Z,65.75
2022-11-15T19:42:10.522Z,58.97
2022-11-15T19:44:39.548Z,65.82
2022-11-15T19:47:09.467Z,64.78
2022-11-15T19:49:39.780Z,58.13
2022-11-15T19:52:09.461Z,73.80
2022-11-15T19:54:39.075Z,59.90
2022-11-15T19:59:37.067Z,62.90
2022-11-15T20:02:07.009Z,62.70
2022-11-15T20:07:07.079Z,58.33
2022-11-15T20:09:36.121Z,50.58
2022-11-15T20:12:05.692Z,64.82
2022-11-15T20:14:34.759Z,64.53
2022-11-15T20:17:03.952Z,71.80
2022-11-15T20:19:33.132Z,67.57
2022-11-15T20:22:02.986Z,56.40
2022-11-15T20:24:33.772Z,58.20
2022-11-15T20:27:03.346Z,61.83
2022-11-15T20:29:32.427Z,66.72
2022-11-15T20:32:01.785Z,64.88
2022-11-15T20:34:30.853Z,57.67
2022-11-15T20:37:00.242Z,48.20
2022-11-15T20:39:29.550Z,58.67
2022-11-15T20:42:00.155Z,58.55
2022-11-15T20:44:29.163Z,54.72
2022-11-15T20:46:58.431Z,54.80
2022-11-15T20:49:28.387Z,57.70
2022-11-15T20:51:57.780Z,48.65
2022-11-15T20:54:26.899Z,49.67
2022-11-15T20:56:56.894Z,56.63
2022-11-15T20:59:27.402Z,48.67
2022-11-15T21:01:56.867Z,49.90
2022-11-15T21:04:25.863Z,58.85
2022-11-15T21:06:55.226Z,68.97
2022-11-15T21:09:41.692Z,65.00
2022-11-15T21:12:13.880Z,59.60
2022-11-15T21:14:46.472Z,68.85
2022-11-15T21:17:15.875Z,65.30
2022-11-15T21:19:45.186Z,58.47
2022-11-15T21:24:44.263Z,55.83
2022-11-15T21:27:15.513Z,55.22
2022-11-15T21:29:49.663Z,52.80
2022-11-15T21:32:19.346Z,63.58
2022-11-15T21:34:48.313Z,52.28
2022-11-15T21:37:17.595Z,53.45
2022-11-15T21:39:46.543Z,59.20
2022-11-15T21:42:15.878Z,48.63
2022-11-15T21:44:46.207Z,61.33
2022-11-15T21:47:15.526Z,50.17
2022-11-15T21:49:44.506Z,54.05
2022-11-15T21:52:13.733Z,55.25
2022-11-15T21:54:44.600Z,53.13
2022-11-15T21:57:13.979Z,53.65
2022-11-15T21:59:57.041Z,58.13
2022-11-15T22:02:27.787Z,58.58
2022-11-15T22:08:09.010Z,50.55
2022-11-15T22:10:38.293Z,58.35
2022-11-15T22:13:07.868Z,46.10
2022-11-15T22:15:37.330Z,54.47
2022-11-15T22:18:08.658Z,49.80
2022-11-15T22:20:44.449Z,58.58
2022-11-15T22:23:14.479Z,51.25
2022-11-15T22:25:44.494Z,59.70
2022-11-15T22:28:14.019Z,53.97
2022-11-15T22:30:45.722Z,54.25
2022-11-15T22:33:16.845Z,62.40
2022-11-15T22:35:46.448Z,49.03
2022-11-15T22:40:46.902Z,52.15
2022-11-15T22:43:18.581Z,50.63
2022-11-15T22:45:54.977Z,63.08
2022-11-15T22:48:29.615Z,59.33
2022-11-15T22:50:59.382Z,58.17
2022-11-15T22:53:29.289Z,57.67
2022-11-15T22:58:31.184Z,60.95
2022-11-15T23:01:03.028Z,64.43
2022-11-15T23:03:34.831Z,60.67
2022-11-15T23:06:06.231Z,55.20
2022-11-15T23:08:36.035Z,63.03
2022-11-15T23:14:01.197Z,55.78
2022-11-15T23:16:36.278Z,57.80
2022-11-15T23:19:10.090Z,62.38
2022-11-15T23:22:01.219Z,58.88
2022-11-15T23:24:31.050Z,63.42
2022-11-15T23:27:03.853Z,57.40
2022-11-15T23:29:53.354Z,64.97
2022-11-15T23:32:40.392Z,67.80
2022-11-15T23:35:11.517Z,66.65
2022-11-15T23:37:40.823Z,66.25
2022-11-15T23:40:11.695Z,89.97
2022-11-15T23:42:41.080Z,76.20
2022-11-15T23:45:11.209Z,70.65
2022-11-15T23:47:40.427Z,64.85
2022-11-15T23:50:11.754Z,62.35
2022-11-15T23:52:41.095Z,65.93
2022-11-15T23:55:11.179Z,65.20
2022-11-15T23:57:40.613Z,62.38
